createdAt,value
2023-01-23T00:01:39.945Z,98579.15
2023-01-23T00:04:10.257Z,98581.50
2023-01-23T00:06:38.297Z,98583.16
2023-01-23T00:09:06.602Z,98582.02
2023-01-23T00:11:35.177Z,98584.45
2023-01-23T00:14:03.314Z,98583.37
2023-01-23T00:16:32.913Z,98586.45
2023-01-23T00:19:02.628Z,98588.20
2023-01-23T00:21:30.901Z,98590.36
2023-01-23T00:24:01.721Z,98589.14
2023-01-23T00:26:35.075Z,98591.61
2023-01-23T00:29:04.866Z,98591.98
2023-01-23T00:31:36.372Z,98588.02
2023-01-23T00:34:07.827Z,98593.34
2023-01-23T00:36:38.139Z,98590.62
2023-01-23T00:39:18.273Z,98594.05
2023-01-23T00:41:47.646Z,98593.75
2023-01-23T00:44:16.405Z,98597.28
2023-01-23T00:46:44.527Z,98598.61
2023-01-23T00:49:12.826Z,98598.73
2023-01-23T00:51:40.916Z,98601.88
2023-01-23T00:54:08.964Z,98602.14
2023-01-23T00:56:37.079Z,98602.32
2023-01-23T00:59:05.090Z,98602.69
2023-01-23T01:01:33.157Z,98609.36
2023-01-23T01:04:01.501Z,98615.13
2023-01-23T01:06:30.619Z,98616.66
2023-01-23T01:08:59.952Z,98620.55
2023-01-23T01:11:28.224Z,98621.36
2023-01-23T01:14:01.887Z,98622.52
2023-01-23T01:16:30.258Z,98615.86
2023-01-23T01:19:00.041Z,98620.71
2023-01-23T01:21:28.159Z,98620.11
2023-01-23T01:23:56.587Z,98614.85
2023-01-23T01:26:28.027Z,98614.85
2023-01-23T01:28:56.101Z,98612.83
2023-01-23T01:31:24.241Z,98615.59
2023-01-23T01:33:52.292Z,98620.94
2023-01-23T01:36:23.995Z,98624.34
2023-01-23T01:38:51.998Z,98627.81
2023-01-23T01:41:19.933Z,98630.27
2023-01-23T01:43:48.538Z,98631.25
2023-01-23T01:46:28.327Z,98631.04
2023-01-23T01:49:14.771Z,98624.47
2023-01-23T01:51:50.518Z,98627.08
2023-01-23T01:54:39.907Z,98626.17
2023-01-23T01:57:12.002Z,98627.87
2023-01-23T02:00:01.438Z,98629.41
2023-01-23T02:02:33.549Z,98636.60
2023-01-23T02:05:04.451Z,98637.95
2023-01-23T02:07:42.062Z,98639.19
2023-01-23T02:10:11.933Z,98639.60
2023-01-23T02:12:45.486Z,98636.80
2023-01-23T02:15:14.042Z,98636.81
2023-01-23T02:17:43.544Z,98640.09
2023-01-23T02:20:24.191Z,98635.42
2023-01-23T02:23:24.374Z,98632.08
2023-01-23T02:26:00.295Z,98631.55
2023-01-23T02:28:52.533Z,98629.76
2023-01-23T02:31:23.790Z,98632.89
2023-01-23T02:33:54.631Z,98635.48
2023-01-23T02:36:32.399Z,98632.23
2023-01-23T02:39:07.172Z,98632.41
2023-01-23T02:41:42.516Z,98632.46
2023-01-23T02:44:19.959Z,98630.88
2023-01-23T02:46:53.055Z,98627.70
2023-01-23T02:49:22.408Z,98629.36
2023-01-23T02:51:53.791Z,98628.59
2023-01-23T02:54:23.043Z,98633.42
2023-01-23T02:56:51.785Z,98640.46
2023-01-23T02:59:40.904Z,98642.70
2023-01-23T03:02:09.987Z,98641.74
2023-01-23T03:04:39.463Z,98642.05
2023-01-23T03:07:09.845Z,98636.22
2023-01-23T03:09:38.603Z,98635.97
2023-01-23T03:12:07.366Z,98642.66
2023-01-23T03:14:35.422Z,98648.80
2023-01-23T03:17:03.546Z,98645.43
2023-01-23T03:19:35.237Z,98649.42
2023-01-23T03:22:03.966Z,98642.23
2023-01-23T03:24:34.546Z,98647.02
2023-01-23T03:27:03.723Z,98646.94
2023-01-23T03:29:55.582Z,98645.04
2023-01-23T03:32:26.165Z,98644.50
2023-01-23T03:34:55.268Z,98645.08
2023-01-23T03:37:23.764Z,98641.94
2023-01-23T03:40:10.957Z,98643.45
2023-01-23T03:42:39.557Z,98644.94
2023-01-23T03:45:08.233Z,98647.80
2023-01-23T03:47:36.937Z,98651.55
2023-01-23T03:50:06.231Z,98649.86
2023-01-23T03:52:38.143Z,98648.08
2023-01-23T03:55:07.106Z,98647.29
2023-01-23T03:57:35.932Z,98642.34
2023-01-23T04:00:24.703Z,98650.79
2023-01-23T04:03:01.688Z,98651.67
2023-01-23T04:05:30.424Z,98647.99
2023-01-23T04:07:58.562Z,98648.69
2023-01-23T04:10:27.199Z,98656.09
2023-01-23T04:12:56.877Z,98662.73
2023-01-23T04:15:25.193Z,98665.98
2023-01-23T04:17:54.597Z,98666.33
2023-01-23T04:20:24.194Z,98665.10
2023-01-23T04:22:52.474Z,98664.14
2023-01-23T04:25:20.553Z,98666.23
2023-01-23T04:27:48.639Z,98670.80
2023-01-23T04:30:16.816Z,98665.42
2023-01-23T04:32:45.063Z,98667.49
2023-01-23T04:35:13.413Z,98671.83
2023-01-23T04:37:42.428Z,98671.32
2023-01-23T04:40:11.542Z,98676.21
2023-01-23T04:42:49.101Z,98678.28
2023-01-23T04:45:39.128Z,98676.90
2023-01-23T04:48:26.179Z,98677.80
2023-01-23T04:50:54.597Z,98680.31
2023-01-23T04:53:22.805Z,98683.43
2023-01-23T04:55:57.265Z,98689.09
2023-01-23T04:58:25.718Z,98689.64
2023-01-23T05:01:05.198Z,98692.81
2023-01-23T05:03:35.337Z,98691.34
2023-01-23T05:06:03.732Z,98689.12
2023-01-23T05:08:31.767Z,98684.65
2023-01-23T05:11:10.961Z,98692.79
2023-01-23T05:13:39.186Z,98694.61
2023-01-23T05:16:07.669Z,98697.52
2023-01-23T05:18:52.696Z,98695.67
2023-01-23T05:21:21.454Z,98699.39
2023-01-23T05:23:49.436Z,98711.05
2023-01-23T05:26:18.378Z,98709.25
2023-01-23T05:28:46.986Z,98710.82
2023-01-23T05:31:15.579Z,98716.29
2023-01-23T05:33:51.005Z,98719.91
2023-01-23T05:36:19.242Z,98718.02
2023-01-23T05:38:47.677Z,98719.79
2023-01-23T05:41:17.458Z,98717.35
2023-01-23T05:44:05.883Z,98718.63
2023-01-23T05:46:54.243Z,98716.80
2023-01-23T05:49:22.518Z,98720.23
2023-01-23T05:51:52.176Z,98724.35
2023-01-23T05:54:20.213Z,98726.35
2023-01-23T05:56:48.539Z,98725.17
2023-01-23T05:59:35.287Z,98732.69
2023-01-23T06:02:26.729Z,98736.98
2023-01-23T06:05:20.961Z,98739.57
2023-01-23T06:07:59.854Z,98740.72
2023-01-23T06:10:27.951Z,98743.16
2023-01-23T06:12:57.460Z,98747.92
2023-01-23T06:15:25.714Z,98749.34
2023-01-23T06:17:57.328Z,98753.61
2023-01-23T06:20:26.102Z,98758.55
2023-01-23T06:22:54.090Z,98761.52
2023-01-23T06:25:22.970Z,98758.88
2023-01-23T06:27:54.981Z,98759.49
2023-01-23T06:30:24.076Z,98757.33
2023-01-23T06:32:52.800Z,98762.20
2023-01-23T06:35:25.460Z,98768.06
2023-01-23T06:37:53.588Z,98771.27
2023-01-23T06:40:22.420Z,98773.91
2023-01-23T06:43:00.811Z,98772.30
2023-01-23T06:45:29.045Z,98771.20
2023-01-23T06:47:59.611Z,98773.56
2023-01-23T06:50:28.229Z,98776.55
2023-01-23T06:52:59.752Z,98777.87
2023-01-23T06:55:28.812Z,98784.22
2023-01-23T06:57:58.084Z,98784.35
2023-01-23T07:00:32.715Z,98787.92
2023-01-23T07:03:05.047Z,98786.82
2023-01-23T07:05:38.498Z,98784.81
2023-01-23T07:08:09.025Z,98783.73
2023-01-23T07:10:39.050Z,98780.27
2023-01-23T07:13:10.689Z,98775.95
2023-01-23T07:15:41.043Z,98773.40
2023-01-23T07:18:10.227Z,98775.98
2023-01-23T07:20:38.533Z,98777.02
2023-01-23T07:23:07.153Z,98776.84
2023-01-23T07:25:35.508Z,98773.43
2023-01-23T07:28:04.557Z,98772.30
2023-01-23T07:30:33.621Z,98769.83
2023-01-23T07:33:01.929Z,98767.13
2023-01-23T07:35:30.259Z,98768.57
2023-01-23T07:37:59.127Z,98774.20
2023-01-23T07:40:31.799Z,98774.16
2023-01-23T07:42:59.775Z,98775.75
2023-01-23T07:45:29.313Z,98776.15
2023-01-23T07:47:57.292Z,98778.81
2023-01-23T07:50:25.321Z,98783.95
2023-01-23T07:52:55.474Z,98779.34
2023-01-23T07:55:24.356Z,98774.85
2023-01-23T07:57:52.510Z,98774.90
2023-01-23T08:00:25.611Z,98775.10
2023-01-23T08:02:57.439Z,98769.42
2023-01-23T08:05:25.849Z,98773.00
2023-01-23T08:08:11.317Z,98779.48
2023-01-23T08:10:41.117Z,98775.41
2023-01-23T08:13:09.538Z,98762.25
2023-01-23T08:15:39.076Z,98752.09
2023-01-23T08:18:07.197Z,98752.59
2023-01-23T08:20:35.667Z,98750.80
2023-01-23T08:23:03.790Z,98744.04
2023-01-23T08:25:32.379Z,98742.45
2023-01-23T08:28:02.309Z,98742.95
2023-01-23T08:30:30.475Z,98742.20
2023-01-23T08:33:00.090Z,98742.54
2023-01-23T08:35:28.211Z,98745.36
2023-01-23T08:37:56.383Z,98744.84
2023-01-23T08:40:25.145Z,98747.78
2023-01-23T08:42:54.836Z,98750.10
2023-01-23T08:45:25.586Z,98748.55
2023-01-23T08:47:56.837Z,98745.16
2023-01-23T08:50:26.049Z,98748.14
2023-01-23T08:52:54.985Z,98744.81
2023-01-23T08:55:24.189Z,98745.61
2023-01-23T08:57:52.362Z,98744.90
2023-01-23T09:00:21.646Z,98746.02
2023-01-23T09:02:50.257Z,98742.09
2023-01-23T09:05:18.665Z,98741.20
2023-01-23T09:07:48.381Z,98740.80
2023-01-23T09:10:17.074Z,98740.95
2023-01-23T09:12:48.101Z,98737.76
2023-01-23T09:15:17.379Z,98733.98
2023-01-23T09:17:48.466Z,98734.70
2023-01-23T09:20:17.831Z,98729.80
2023-01-23T09:22:46.070Z,98730.84
2023-01-23T09:25:14.492Z,98732.45
2023-01-23T09:27:42.736Z,98730.71
2023-01-23T09:30:14.065Z,98731.39
2023-01-23T09:32:42.352Z,98727.36
2023-01-23T09:35:12.196Z,98724.19
2023-01-23T09:38:00.201Z,98724.00
2023-01-23T09:40:36.101Z,98723.20
2023-01-23T09:43:38.477Z,98720.60
2023-01-23T09:46:15.562Z,98720.78
2023-01-23T09:48:46.406Z,98716.80
2023-01-23T09:51:29.492Z,98714.71
2023-01-23T09:54:26.957Z,98714.78
2023-01-23T09:56:58.163Z,98710.05
2023-01-23T09:59:35.038Z,98712.63
2023-01-23T10:02:04.006Z,98711.08
2023-01-23T10:04:32.738Z,98712.30
2023-01-23T10:07:01.167Z,98711.09
2023-01-23T10:09:41.308Z,98711.88
2023-01-23T10:12:44.836Z,98712.35
2023-01-23T10:15:53.820Z,98707.21
2023-01-23T10:18:34.097Z,98705.23
2023-01-23T10:22:02.291Z,98706.41
2023-01-23T10:24:40.432Z,98703.35
2023-01-23T10:27:34.642Z,98699.20
2023-01-23T10:30:05.322Z,98696.55
2023-01-23T10:33:01.618Z,98697.60
2023-01-23T10:35:39.286Z,98696.16
2023-01-23T10:38:31.547Z,98690.20
2023-01-23T10:41:15.308Z,98690.02
2023-01-23T10:43:53.747Z,98695.23
2023-01-23T10:46:35.845Z,98691.92
2023-01-23T10:49:07.499Z,98686.32
2023-01-23T10:51:38.905Z,98682.36
2023-01-23T10:54:31.175Z,98677.23
2023-01-23T11:00:41.143Z,98659.59
2023-01-23T11:03:28.652Z,98655.30
2023-01-23T11:06:16.466Z,98650.73
2023-01-23T11:09:20.625Z,98646.08
2023-01-23T11:12:06.730Z,98641.07
2023-01-23T11:14:38.851Z,98635.18
2023-01-23T11:17:19.831Z,98636.84
2023-01-23T11:19:53.243Z,98635.51
2023-01-23T11:22:30.201Z,98634.48
2023-01-23T11:24:59.268Z,98631.55
2023-01-23T11:27:33.138Z,98625.80
2023-01-23T11:30:24.111Z,98629.94
2023-01-23T11:32:59.936Z,98626.91
2023-01-23T11:35:34.614Z,98625.66
2023-01-23T11:38:05.029Z,98626.60
2023-01-23T11:40:34.418Z,98626.61
2023-01-23T11:43:02.768Z,98624.92
2023-01-23T11:45:44.094Z,98622.20
2023-01-23T11:48:30.167Z,98624.35
2023-01-23T11:51:30.742Z,98620.45
2023-01-23T11:54:24.016Z,98615.96
2023-01-23T11:57:08.052Z,98614.91
2023-01-23T11:59:59.686Z,98612.29
2023-01-23T12:02:56.176Z,98610.95
2023-01-23T12:05:30.487Z,98608.80
2023-01-23T12:08:26.776Z,98610.13
2023-01-23T12:11:17.126Z,98607.38
2023-01-23T12:13:49.061Z,98606.20
2023-01-23T12:16:58.968Z,98606.94
2023-01-23T12:19:36.318Z,98603.14
2023-01-23T12:22:37.370Z,98606.91
2023-01-23T12:25:34.828Z,98609.92
2023-01-23T12:28:43.085Z,98610.45
2023-01-23T12:31:26.384Z,98613.23
2023-01-23T12:34:39.555Z,98613.55
2023-01-23T12:37:31.156Z,98617.22
2023-01-23T12:40:23.970Z,98617.44
2023-01-23T12:42:57.551Z,98615.91
2023-01-23T12:45:38.411Z,98617.52
2023-01-23T12:48:41.101Z,98617.98
2023-01-23T12:51:15.267Z,98616.20
2023-01-23T12:53:51.519Z,98615.34
2023-01-23T12:56:42.054Z,98613.59
2023-01-23T12:59:27.621Z,98616.03
2023-01-23T13:02:02.052Z,98617.20
2023-01-23T13:04:55.323Z,98619.56
2023-01-23T13:07:41.293Z,98621.85
2023-01-23T13:10:53.959Z,98626.80
2023-01-23T13:13:23.799Z,98628.34
2023-01-23T13:16:07.314Z,98628.00
2023-01-23T13:18:55.415Z,98632.46
2023-01-23T13:21:52.862Z,98629.67
2023-01-23T13:24:41.050Z,98627.32
2023-01-23T13:27:49.481Z,98628.23
2023-01-23T13:30:26.599Z,98628.70
2023-01-23T13:33:01.860Z,98633.13
2023-01-23T13:35:49.154Z,98634.32
2023-01-23T13:38:26.341Z,98633.80
2023-01-23T13:41:04.694Z,98639.21
2023-01-23T13:43:55.167Z,98639.52
2023-01-23T14:22:36.583Z,98652.27
2023-01-23T14:25:19.440Z,98652.94
2023-01-23T14:27:53.817Z,98652.08
2023-01-23T14:30:27.126Z,98655.45
2023-01-23T14:32:56.615Z,98652.48
2023-01-23T14:35:33.135Z,98653.10
2023-01-23T14:38:06.882Z,98654.56
2023-01-23T14:40:49.185Z,98657.41
2023-01-23T14:43:24.731Z,98657.95
2023-01-23T14:46:01.634Z,98656.47
2023-01-23T14:48:35.648Z,98658.85
2023-01-23T14:51:12.374Z,98654.68
2023-01-23T14:53:42.116Z,98656.80
2023-01-23T14:56:11.961Z,98655.27
2023-01-23T14:58:40.792Z,98655.02
2023-01-23T15:01:11.503Z,98653.44
2023-01-23T15:03:54.712Z,98656.45
2023-01-23T15:06:24.053Z,98660.95
2023-01-23T15:08:52.843Z,98659.52
2023-01-23T15:11:28.835Z,98660.99
2023-01-23T15:14:01.590Z,98661.73
2023-01-23T15:16:36.102Z,98665.94
2023-01-23T15:19:20.976Z,98669.51
2023-01-23T15:21:49.510Z,98668.52
2023-01-23T15:24:29.746Z,98671.10
2023-01-23T15:27:03.804Z,98670.66
2023-01-23T15:29:33.198Z,98672.59
2023-01-23T15:32:02.409Z,98673.85
2023-01-23T15:34:35.097Z,98677.52
2023-01-23T15:37:06.578Z,98681.86
2023-01-23T15:39:46.882Z,98686.54
2023-01-23T15:42:14.962Z,98688.58
2023-01-23T15:44:43.724Z,98687.09
2023-01-23T15:47:11.886Z,98687.58
2023-01-23T15:49:40.890Z,98687.74
2023-01-23T15:52:27.184Z,98686.02
2023-01-23T15:55:00.049Z,98692.59
2023-01-23T15:57:28.187Z,98699.23
2023-01-23T15:59:56.331Z,98705.10
2023-01-23T16:02:31.165Z,98711.08
2023-01-23T16:05:02.025Z,98713.60
2023-01-23T16:07:58.117Z,98715.34
2023-01-23T16:10:31.939Z,98712.41
2023-01-23T16:13:00.119Z,98714.04
2023-01-23T16:15:30.598Z,98717.42
2023-01-23T16:18:00.098Z,98716.48
2023-01-23T16:20:34.792Z,98719.26
2023-01-23T16:23:14.697Z,98725.52
2023-01-23T16:25:46.680Z,98730.78
2023-01-23T16:28:21.241Z,98735.19
2023-01-23T16:30:51.969Z,98736.78
2023-01-23T16:33:21.669Z,98735.38
2023-01-23T16:35:51.469Z,98735.80
2023-01-23T16:38:25.761Z,98735.82
2023-01-23T16:40:56.837Z,98738.91
2023-01-23T16:43:27.084Z,98739.70
2023-01-23T16:45:56.744Z,98740.68
2023-01-23T16:48:27.604Z,98742.60
2023-01-23T16:51:23.490Z,98747.00
2023-01-23T16:53:58.636Z,98746.64
2023-01-23T16:56:38.103Z,98751.08
2023-01-23T16:59:15.710Z,98758.79
2023-01-23T17:01:46.173Z,98759.44
2023-01-23T17:04:19.314Z,98761.69
2023-01-23T17:06:49.235Z,98758.38
2023-01-23T17:09:17.736Z,98765.00
2023-01-23T17:11:53.871Z,98766.60
2023-01-23T17:14:28.905Z,98774.94
2023-01-23T17:17:04.417Z,98776.16
2023-01-23T17:19:39.652Z,98773.15
2023-01-23T17:22:19.138Z,98772.76
2023-01-23T17:24:47.498Z,98774.52
2023-01-23T17:27:16.144Z,98776.19
2023-01-23T17:29:44.414Z,98774.42
2023-01-23T17:32:37.492Z,98776.45
2023-01-23T17:35:08.924Z,98778.29
2023-01-23T17:37:37.959Z,98782.18
2023-01-23T17:40:10.781Z,98788.94
2023-01-23T17:42:38.908Z,98792.58
2023-01-23T17:45:08.825Z,98793.13
2023-01-23T17:47:37.522Z,98794.68
2023-01-23T17:50:06.280Z,98796.96
2023-01-23T17:52:34.305Z,98795.03
2023-01-23T17:55:02.603Z,98793.15
2023-01-23T17:57:30.945Z,98797.27
2023-01-23T17:59:59.002Z,98801.73
2023-01-23T18:02:28.898Z,98806.81
2023-01-23T18:04:57.876Z,98808.48
2023-01-23T18:07:26.503Z,98809.52
2023-01-23T18:09:56.520Z,98807.25
2023-01-23T18:12:35.357Z,98809.14
2023-01-23T18:15:11.135Z,98806.48
2023-01-23T18:18:00.192Z,98807.11
2023-01-23T18:20:28.721Z,98811.65
2023-01-23T18:22:57.464Z,98813.51
2023-01-23T18:25:26.842Z,98815.27
2023-01-23T18:28:00.440Z,98812.30
2023-01-23T18:30:42.423Z,98818.13
2023-01-23T18:33:27.220Z,98816.13
2023-01-23T18:36:12.332Z,98816.67
2023-01-23T18:38:58.842Z,98820.34
2023-01-23T18:41:28.750Z,98823.10
2023-01-23T18:44:12.657Z,98824.02
2023-01-23T18:46:41.628Z,98822.73
2023-01-23T18:49:21.480Z,98826.72
2023-01-23T18:52:08.908Z,98834.98
2023-01-23T18:54:56.073Z,98833.52
2023-01-23T18:57:32.200Z,98838.95
2023-01-23T19:00:04.486Z,98839.63
2023-01-23T19:02:51.952Z,98841.32
2023-01-23T19:05:29.662Z,98843.70
2023-01-23T19:07:59.983Z,98849.45
2023-01-23T19:10:47.644Z,98851.00
2023-01-23T19:13:27.324Z,98850.86
2023-01-23T19:16:07.256Z,98847.83
2023-01-23T19:19:15.450Z,98856.20
2023-01-23T19:21:46.919Z,98855.30
2023-01-23T19:24:20.607Z,98857.63
2023-01-23T19:26:50.251Z,98856.03
2023-01-23T19:29:23.049Z,98854.96
2023-01-23T19:32:05.147Z,98860.77
2023-01-23T19:34:34.579Z,98865.52
2023-01-23T19:37:03.960Z,98869.39
2023-01-23T19:39:32.379Z,98869.30
2023-01-23T19:42:01.105Z,98865.33
2023-01-23T19:44:30.330Z,98866.89
2023-01-23T19:46:58.552Z,98872.43
2023-01-23T19:49:28.137Z,98872.16
2023-01-23T19:51:56.618Z,98871.29
2023-01-23T19:54:24.761Z,98877.00
2023-01-23T19:56:53.061Z,98872.77
2023-01-23T19:59:21.829Z,98876.36
2023-01-23T20:01:52.470Z,98877.48
2023-01-23T20:04:23.394Z,98880.55
2023-01-23T20:06:55.237Z,98886.10
2023-01-23T20:09:23.232Z,98886.44
2023-01-23T20:11:52.338Z,98886.16
2023-01-23T20:14:22.288Z,98888.67
2023-01-23T20:16:50.724Z,98888.57
2023-01-23T20:19:19.599Z,98889.79
2023-01-23T20:21:48.623Z,98891.20
2023-01-23T20:24:17.114Z,98891.14
2023-01-23T20:26:46.493Z,98888.70
2023-01-23T20:29:14.920Z,98894.92
2023-01-23T20:31:43.045Z,98896.66
2023-01-23T20:34:11.051Z,98900.08
2023-01-23T20:36:39.486Z,98903.70
2023-01-23T20:39:07.530Z,98904.45
2023-01-23T20:41:36.262Z,98903.30
2023-01-23T20:44:04.441Z,98903.97
2023-01-23T20:46:32.793Z,98906.63
2023-01-23T20:49:01.808Z,98907.89
2023-01-23T20:51:30.470Z,98912.77
2023-01-23T20:53:58.667Z,98919.01
2023-01-23T20:56:29.762Z,98924.19
2023-01-23T20:59:16.529Z,98921.27
2023-01-23T21:02:05.172Z,98925.60
2023-01-23T21:04:36.324Z,98923.80
2023-01-23T21:07:04.679Z,98927.84
2023-01-23T21:09:32.852Z,98930.39
2023-01-23T21:12:01.255Z,98933.75
2023-01-23T21:14:29.541Z,98932.30
2023-01-23T21:16:58.475Z,98934.67
2023-01-23T21:19:28.503Z,98934.48
2023-01-23T21:22:00.372Z,98934.35
2023-01-23T21:24:28.769Z,98935.37
2023-01-23T21:26:56.894Z,98937.99
2023-01-23T21:29:24.902Z,98935.45
2023-01-23T21:31:52.971Z,98938.39
2023-01-23T21:34:20.977Z,98939.47
2023-01-23T21:36:48.910Z,98942.95
2023-01-23T21:39:17.170Z,98945.54
2023-01-23T21:41:45.306Z,98940.39
2023-01-23T21:44:13.708Z,98943.26
2023-01-23T21:46:42.448Z,98939.18
2023-01-23T21:49:10.588Z,98938.92
2023-01-23T21:51:38.608Z,98941.94
2023-01-23T21:54:06.631Z,98941.75
2023-01-23T21:56:34.707Z,98939.77
2023-01-23T21:59:04.850Z,98942.30
2023-01-23T22:01:33.637Z,98938.70
2023-01-23T22:04:13.483Z,98938.08
2023-01-23T22:06:43.597Z,98937.91
2023-01-23T22:09:17.951Z,98937.45
2023-01-23T22:11:47.337Z,98937.00
2023-01-23T22:14:17.151Z,98943.04
2023-01-23T22:16:50.255Z,98939.48
2023-01-23T22:19:25.106Z,98937.89
2023-01-23T22:21:55.200Z,98936.23
2023-01-23T22:24:23.688Z,98934.29
2023-01-23T22:26:51.869Z,98931.98
2023-01-23T22:29:19.902Z,98930.83
2023-01-23T22:31:48.708Z,98933.18
2023-01-23T22:34:16.990Z,98928.55
2023-01-23T22:36:44.987Z,98921.08
2023-01-23T22:39:20.074Z,98919.73
2023-01-23T22:41:50.229Z,98920.16
2023-01-23T22:44:20.944Z,98930.05
2023-01-23T22:46:51.711Z,98935.14
2023-01-23T22:49:21.694Z,98937.36
2023-01-23T22:51:51.565Z,98940.77
2023-01-23T22:54:19.579Z,98944.53
2023-01-23T22:56:47.542Z,98946.40
2023-01-23T22:59:15.534Z,98946.61
2023-01-23T23:01:43.464Z,98947.96
2023-01-23T23:04:11.493Z,98945.77
2023-01-23T23:06:39.574Z,98948.59
2023-01-23T23:09:07.598Z,98945.34
2023-01-23T23:11:37.159Z,98946.02
2023-01-23T23:14:05.215Z,98944.89
2023-01-23T23:16:33.250Z,98940.60
2023-01-23T23:19:03.023Z,98944.36
2023-01-23T23:21:35.656Z,98947.36
2023-01-23T23:24:07.149Z,98946.55
2023-01-23T23:26:35.421Z,98948.16
2023-01-23T23:29:04.552Z,98948.43
2023-01-23T23:31:33.007Z,98951.41
2023-01-23T23:34:01.629Z,98948.70
2023-01-23T23:36:29.871Z,98949.33
2023-01-23T23:38:58.260Z,98947.59
2023-01-23T23:41:26.628Z,98946.29
2023-01-23T23:43:54.565Z,98942.80
2023-01-23T23:46:22.473Z,98941.39
2023-01-23T23:48:50.731Z,98941.73
2023-01-23T23:51:19.928Z,98941.32
2023-01-23T23:53:47.985Z,98941.46
2023-01-23T23:56:22.372Z,98944.50
2023-01-23T23:58:50.870Z,98947.04
